CW9703 Weather Reports


Display with metric or nautical units.
time (UTC)temp
F
wind
direction
speed
MPH
gust
MPH
rain 1hr
in
rain 24hr
in
rain mn
in
humidity
%
barometer
mb
20240612215527 71 155 2.0 6.0 0.00 0.00 0.00 79 1009.7
20240612213326 68 137 4.0 6.0 0.00 0.00 0.00 83 1009.8
20240612211127 69 124 6.0 8.0 0.00 0.00 0.00 82 1010.0
20240612204925 69 142 4.0 6.0 0.00 0.00 0.00 81 1010.4
20240612202725 68 136 4.0 7.0 0.00 0.00 0.00 81 1010.5
20240612200525 68 153 9.0 9.0 0.00 0.00 0.00 82 1010.5
20240612194324 68 138 7.0 8.0 0.00 0.00 0.00 82 1010.7
20240612192125 69 151 5.0 10.0 0.00 0.00 0.00 80 1010.9
20240612185924 68 162 10.0 11.0 0.00 0.00 0.00 78 1011.1
20240612183753 68 161 10.0 10.0 0.00 0.00 0.00 78 1011.2
20240612181523 67 170 9.0 10.0 0.00 0.00 0.00 77 1011.4
20240612175323 66 153 8.0 10.0 0.00 0.00 0.00 81 1011.4
20240612173253 66 173 6.0 10.0 0.00 0.00 0.00 84 1011.6
20240612170953 66 147 8.0 11.0 0.00 0.00 0.00 84 1011.8
20240612164722 66 167 9.0 11.0 0.00 0.00 0.00 83 1012.1
20240612162522 65 164 9.0 10.0 0.00 0.00 0.00 82 1012.2
20240612160322 65 167 7.0 9.0 0.00 0.00 0.00 84 1012.1
20240612154121 65 150 5.0 10.0 0.00 0.00 0.00 86 1012.3
20240612151921 64 167 9.0 10.0 0.00 0.00 0.00 84 1012.3
20240612145721 64 167 8.0 9.0 0.00 0.00 0.00 84 1012.3
20240612143520 64 178 5.0 9.0 0.00 0.00 0.00 83 1012.6
20240612141321 63 159 5.0 8.0 0.00 0.00 0.00 84 1012.7
20240612135121 63 185 6.0 10.0 0.00 0.00 0.00 84 1012.8
20240612132919 63 172 5.0 7.0 0.00 0.00 0.00 85 1013.0
20240612130719 63 196 4.0 6.0 0.00 0.00 0.00 86 1013.1
20240612124519 62 179 3.0 5.0 0.00 0.00 0.00 87 1013.1
20240612122319 60 163 3.0 4.0 0.00 0.00 0.00 92 1013.2
20240612120118 59 159 2.0 4.0 0.00 0.00 0.00 92 1013.2
20240612113918 59 175 1.0 3.0 0.00 0.00 0.00 92 1013.4
20240612111717 59 186 2.0 3.0 0.00 0.00 0.00 92 1013.5
20240612105518 59 201 2.0 3.0 0.00 0.00 0.00 92 1013.5
20240612103347 60 200 4.0 6.0 0.00 0.00 0.00 91 1013.5
20240612101117 60 200 5.0 5.0 0.00 0.00 0.00 91 1013.4
20240612094918 60 191 5.0 6.0 0.00 0.00 0.00 92 1013.2
20240612092716 60 190 3.0 5.0 0.00 0.00 0.00 92 1013.2
20240612090546 60 189 3.0 6.0 0.00 0.00 0.00 91 1013.1
20240612084346 60 179 5.0 7.0 0.00 0.00 0.00 91 1013.1
20240612082115 60 165 6.0 9.0 0.00 0.00 0.00 91 1013.0
20240612075915 60 191 6.0 6.0 0.00 0.00 0.00 90 1013.0
20240612073715 60 155 3.0 6.0 0.00 0.00 0.00 89 1012.9
20240612071514 59 202 1.0 2.0 0.00 0.00 0.00 87 1013.1
20240612065344 60 202 0.0 0.0 0.00 0.00 0.00 86 1012.9
20240612063115 59 225 0.0 0.0 0.00 0.00 0.00 86 1013.0
20240612060944 59 224 0.0 0.0 0.00 0.00 0.00 85 1013.2
20240612054713 59 229 0.0 2.0 0.00 0.00 0.00 83 1013.2
20240612052513 59 224 1.0 3.0 0.00 0.00 0.00 82 1013.6
20240612050313 60 211 3.0 3.0 0.00 0.00 0.00 80 1013.8
20240612044112 60 204 4.0 9.0 0.00 0.00 0.00 82 1013.8
20240612041912 60 180 3.0 7.0 0.00 0.00 0.00 82 1013.8
20240612035712 60 174 4.0 5.0 0.00 0.00 0.00 82 1013.9
20240612033511 60 142 10.0 12.0 0.00 0.00 0.00 80 1013.6
20240612031341 60 146 10.0 14.0 0.00 0.00 0.00 82 1013.7
20240612025112 60 167 9.0 12.0 0.00 0.00 0.00 84 1013.8
20240612022911 61 150 10.0 13.0 0.00 0.00 0.00 85 1013.7
20240612020710 61 142 10.0 14.0 0.00 0.00 0.00 83 1013.4
20240612014510 62 137 9.0 13.0 0.00 0.00 0.00 84 1013.2
20240612012310 61 146 9.0 10.0 0.00 0.00 0.00 82 1012.9
20240612010109 62 147 5.0 9.0 0.00 0.00 0.00 81 1013.0
20240612003909 61 227 0.0 0.0 0.00 0.00 0.00 81 1013.1
20240612001709 61 174 3.0 4.0 0.00 0.00 0.00 82 1013.3
20240611235509 61 144 3.0 5.0 0.00 0.00 0.00 80 1013.4
20240611233308 62 131 3.0 6.0 0.00 0.00 0.00 80 1013.5
20240611231108 62 118 6.0 7.0 0.00 0.00 0.00 81 1013.6
20240611224939 62 117 6.0 8.0 0.00 0.00 0.00 81 1013.6
20240611223008 62 115 7.0 9.0 0.00 0.00 0.00 76 1013.5